地図

経路データ

SID SEASON NUMBER BASIN SUBBASIN NAME ISO_TIME NATURE LAT LON WMO_WIND WMO_PRES WMO_AGENCY TRACK_TYPE DIST2LAND LANDFALL IFLAG USA_AGENCY USA_ATCF_ID USA_LAT USA_LON USA_RECORD USA_STATUS USA_WIND USA_PRES USA_SSHS USA_R34_NE USA_R34_SE USA_R34_SW USA_R34_NW USA_R50_NE USA_R50_SE USA_R50_SW USA_R50_NW USA_R64_NE USA_R64_SE USA_R64_SW USA_R64_NW USA_POCI USA_ROCI USA_RMW USA_EYE TOKYO_LAT TOKYO_LON TOKYO_GRADE TOKYO_WIND TOKYO_PRES TOKYO_R50_DIR TOKYO_R50_LONG TOKYO_R50_SHORT TOKYO_R30_DIR TOKYO_R30_LONG TOKYO_R30_SHORT TOKYO_LAND CMA_LAT CMA_LON CMA_CAT CMA_WIND CMA_PRES HKO_LAT HKO_LON HKO_CAT HKO_WIND HKO_PRES NEWDELHI_LAT NEWDELHI_LON NEWDELHI_GRADE NEWDELHI_WIND NEWDELHI_PRES NEWDELHI_CI NEWDELHI_DP NEWDELHI_POCI REUNION_LAT REUNION_LON REUNION_TYPE REUNION_WIND REUNION_PRES REUNION_TNUM REUNION_CI REUNION_RMW REUNION_R34_NE REUNION_R34_SE REUNION_R34_SW REUNION_R34_NW REUNION_R50_NE REUNION_R50_SE REUNION_R50_SW REUNION_R50_NW REUNION_R64_NE REUNION_R64_SE REUNION_R64_SW REUNION_R64_NW BOM_LAT BOM_LON BOM_TYPE BOM_WIND BOM_PRES BOM_TNUM BOM_CI BOM_RMW BOM_R34_NE BOM_R34_SE BOM_R34_SW BOM_R34_NW BOM_R50_NE BOM_R50_SE BOM_R50_SW BOM_R50_NW BOM_R64_NE BOM_R64_SE BOM_R64_SW BOM_R64_NW BOM_ROCI BOM_POCI BOM_EYE BOM_POS_METHOD BOM_PRES_METHOD NADI_LAT NADI_LON NADI_CAT NADI_WIND NADI_PRES WELLINGTON_LAT WELLINGTON_LON WELLINGTON_WIND WELLINGTON_PRES DS824_LAT DS824_LON DS824_STAGE DS824_WIND DS824_PRES TD9636_LAT TD9636_LON TD9636_STAGE TD9636_WIND TD9636_PRES TD9635_LAT TD9635_LON TD9635_WIND TD9635_PRES TD9635_ROCI NEUMANN_LAT NEUMANN_LON NEUMANN_CLASS NEUMANN_WIND NEUMANN_PRES MLC_LAT MLC_LON MLC_CLASS MLC_WIND MLC_PRES USA_GUST BOM_GUST BOM_GUST_PER REUNION_GUST REUNION_GUST_PER USA_SEAHGT USA_SEARAD_NE USA_SEARAD_SE USA_SEARAD_SW USA_SEARAD_NW STORM_SPEED STORM_DIR
1926233N13285 1926 34 NA CS NOT_NAMED 1926-08-20 12:00:00 TS 12.5000 -75.5000 25 hurdat_atl main 180 180 O_____________ hurdat_atl AL031926 12.5000 -75.5000 TD 25 -1 18 304
1926233N13285 1926 34 NA CS NOT_NAMED 1926-08-20 15:00:00 TS 13.0004 -76.2494 main 264 264 P_____________ AL031926 13.0004 -76.2494 TD 25 -1 18 304
1926233N13285 1926 34 NA CS NOT_NAMED 1926-08-20 18:00:00 TS 13.5000 -77.0000 25 hurdat_atl main 354 354 O_____________ hurdat_atl AL031926 13.5000 -77.0000 TD 25 -1 18 304
1926233N13285 1926 34 NA CS NOT_NAMED 1926-08-20 21:00:00 TS 13.9998 -77.7503 main 419 384 P_____________ AL031926 13.9998 -77.7503 TD 27 -1 18 304
1926233N13285 1926 34 NA CS NOT_NAMED 1926-08-21 00:00:00 TS 14.5000 -78.5000 30 hurdat_atl main 384 361 O_____________ hurdat_atl AL031926 14.5000 -78.5000 TD 30 -1 18 305
1926233N13285 1926 34 NA CS NOT_NAMED 1926-08-21 03:00:00 TS 14.9998 -79.2504 main 366 337 P_____________ AL031926 14.9998 -79.2504 TD 30 -1 18 305
1926233N13285 1926 34 NA CS NOT_NAMED 1926-08-21 06:00:00 TS 15.5000 -80.0000 30 hurdat_atl main 337 276 O_____________ hurdat_atl AL031926 15.5000 -80.0000 TD 30 -1 18 304
1926233N13285 1926 34 NA CS NOT_NAMED 1926-08-21 09:00:00 TS 15.9851 -80.7877 main 270 239 P_____________ AL031926 15.9851 -80.7877 TD 32 -1 18 305
1926233N13285 1926 34 NA CS NOT_NAMED 1926-08-21 12:00:00 TS 16.5000 -81.5000 35 hurdat_atl main 239 231 O_____________ hurdat_atl AL031926 16.5000 -81.5000 TS 35 0 16 312
1926233N13285 1926 34 NA CS NOT_NAMED 1926-08-21 15:00:00 TS 17.0697 -82.0529 main 244 244 P_____________ AL031926 17.0697 -82.0529 TS 37 0 15 321
1926233N13285 1926 34 NA CS NOT_NAMED 1926-08-21 18:00:00 TS 17.7000 -82.5000 40 hurdat_atl main 284 284 O_____________ hurdat_atl AL031926 17.7000 -82.5000 TS 40 0 16 328
1926233N13285 1926 34 NA CS NOT_NAMED 1926-08-21 21:00:00 TS 18.3923 -82.9153 main 326 262 P_____________ AL031926 18.3923 -82.9153 TS 42 0 16 332
1926233N13285 1926 34 NA CS NOT_NAMED 1926-08-22 00:00:00 TS 19.1000 -83.3000 45 hurdat_atl main 262 207 O_____________ hurdat_atl AL031926 19.1000 -83.3000 TS 45 0 16 332
1926233N13285 1926 34 NA CS NOT_NAMED 1926-08-22 03:00:00 TS 19.7723 -83.6928 main 201 161 P_____________ AL031926 19.7723 -83.6928 TS 47 0 15 330
1926233N13285 1926 34 NA CS NOT_NAMED 1926-08-22 06:00:00 TS 20.4000 -84.1000 50 hurdat_atl main 161 89 O_____________ hurdat_atl AL031926 20.4000 -84.1000 TS 50 0 15 327
1926233N13285 1926 34 NA CS NOT_NAMED 1926-08-22 09:00:00 TS 20.9949 -84.5351 main 89 35 P_____________ AL031926 20.9949 -84.5351 TS 52 0 14 323
1926233N13285 1926 34 NA CS NOT_NAMED 1926-08-22 12:00:00 TS 21.5000 -85.0000 55 hurdat_atl main 39 30 O_____________ hurdat_atl AL031926 21.5000 -85.0000 TS 55 0 13 315
1926233N13285 1926 34 NA GM NOT_NAMED 1926-08-22 15:00:00 TS 21.8949 -85.4928 main 51 51 P_____________ AL031926 21.8949 -85.4928 TS 57 0 12 307
1926233N13285 1926 34 NA GM NOT_NAMED 1926-08-22 18:00:00 TS 22.2000 -86.0000 60 hurdat_atl main 108 108 O_____________ hurdat_atl AL031926 22.2000 -86.0000 TS 60 0 11 302
1926233N13285 1926 34 NA GM NOT_NAMED 1926-08-22 21:00:00 TS 22.4798 -86.5002 main 123 119 P_____________ AL031926 22.4798 -86.5002 TS 62 0 11 298
1926233N13285 1926 34 NA GM NOT_NAMED 1926-08-23 00:00:00 TS 22.7000 -87.0000 65 hurdat_atl main 134 134 O_____________ hurdat_atl AL031926 22.7000 -87.0000 HU 65 1 10 292
1926233N13285 1926 34 NA GM NOT_NAMED 1926-08-23 03:00:00 TS 22.8500 -87.5154 main 146 146 P_____________ AL031926 22.8500 -87.5154 HU 65 1 10 288
1926233N13285 1926 34 NA GM NOT_NAMED 1926-08-23 06:00:00 TS 23.0000 -88.0000 65 hurdat_atl main 167 167 O_____________ hurdat_atl AL031926 23.0000 -88.0000 HU 65 1 9 294
1926233N13285 1926 34 NA GM NOT_NAMED 1926-08-23 09:00:00 TS 23.2273 -88.4226 main 190 190 P_____________ AL031926 23.2273 -88.4226 HU 67 1 9 304
1926233N13285 1926 34 NA GM NOT_NAMED 1926-08-23 12:00:00 TS 23.5000 -88.8000 70 hurdat_atl main 224 224 O_____________ hurdat_atl AL031926 23.5000 -88.8000 HU 70 1 9 309
1926233N13285 1926 34 NA GM NOT_NAMED 1926-08-23 15:00:00 TS 23.7849 -89.1651 main 264 264 P_____________ AL031926 23.7849 -89.1651 HU 72 1 9 313
1926233N13285 1926 34 NA GM NOT_NAMED 1926-08-23 18:00:00 TS 24.1000 -89.5000 75 hurdat_atl main 304 304 O_____________ hurdat_atl AL031926 24.1000 -89.5000 HU 75 1 9 318
1926233N13285 1926 34 NA GM NOT_NAMED 1926-08-23 21:00:00 TS 24.4499 -89.8151 main 346 346 P_____________ AL031926 24.4499 -89.8151 HU 77 1 9 322
1926233N13285 1926 34 NA GM NOT_NAMED 1926-08-24 00:00:00 TS 24.8000 -90.1000 80 hurdat_atl main 399 399 O_____________ hurdat_atl AL031926 24.8000 -90.1000 HU 80 1 8 322
1926233N13285 1926 34 NA GM NOT_NAMED 1926-08-24 03:00:00 TS 25.1075 -90.3801 main 438 413 P_____________ AL031926 25.1075 -90.3801 HU 82 1 8 323
1926233N13285 1926 34 NA GM NOT_NAMED 1926-08-24 06:00:00 TS 25.4000 -90.6000 85 hurdat_atl main 413 379 O_____________ hurdat_atl AL031926 25.4000 -90.6000 HU 85 2 7 332
1926233N13285 1926 34 NA GM NOT_NAMED 1926-08-24 09:00:00 TS 25.7149 -90.7376 main 379 346 P_____________ AL031926 25.7149 -90.7376 HU 85 2 6 343
1926233N13285 1926 34 NA GM NOT_NAMED 1926-08-24 12:00:00 TS 26.0000 -90.8000 85 hurdat_atl main 346 323 O_____________ hurdat_atl AL031926 26.0000 -90.8000 HU 85 2 5 352
1926233N13285 1926 34 NA GM NOT_NAMED 1926-08-24 15:00:00 TS 26.2150 -90.8151 main 323 301 P_____________ AL031926 26.2150 -90.8151 HU 90 2 4 0
1926233N13285 1926 34 NA GM NOT_NAMED 1926-08-24 18:00:00 TS 26.4000 -90.8000 95 hurdat_atl main 301 279 O_____________ hurdat_atl AL031926 26.4000 -90.8000 HU 95 2 4 3
1926233N13285 1926 34 NA GM NOT_NAMED 1926-08-24 21:00:00 TS 26.6000 -90.8000 main 279 256 P_____________ AL031926 26.6000 -90.8000 HU 97 3 4 0
1926233N13285 1926 34 NA GM NOT_NAMED 1926-08-25 00:00:00 TS 26.8000 -90.8000 100 hurdat_atl main 256 234 O_____________ hurdat_atl AL031926 26.8000 -90.8000 HU 100 3 4 0
1926233N13285 1926 34 NA GM NOT_NAMED 1926-08-25 03:00:00 TS 26.9925 -90.8000 main 234 212 P_____________ AL031926 26.9925 -90.8000 HU 100 3 4 0
1926233N13285 1926 34 NA GM NOT_NAMED 1926-08-25 06:00:00 TS 27.2000 -90.8000 100 hurdat_atl main 212 190 O_____________ hurdat_atl AL031926 27.2000 -90.8000 HU 100 3 4 3
1926233N13285 1926 34 NA GM NOT_NAMED 1926-08-25 09:00:00 TS 27.4200 -90.8000 main 190 156 P_____________ AL031926 27.4200 -90.8000 HU 100 3 5 2
1926233N13285 1926 34 NA GM NOT_NAMED 1926-08-25 12:00:00 TS 27.7000 -90.8000 100 hurdat_atl main 156 112 O_____________ hurdat_atl AL031926 27.7000 -90.8000 HU 100 3 7 1
1926233N13285 1926 34 NA GM NOT_NAMED 1926-08-25 15:00:00 TS 28.0748 -90.7902 main 112 67 P_____________ AL031926 28.0748 -90.7902 HU 100 3 8 1
1926233N13285 1926 34 NA GM NOT_NAMED 1926-08-25 18:00:00 TS 28.5000 -90.8000 100 hurdat_atl main 67 22 O_____________ hurdat_atl AL031926 28.5000 -90.8000 HU 100 3 9 355
1926233N13285 1926 34 NA GM NOT_NAMED 1926-08-25 21:00:00 TS 28.9469 -90.8696 main 22 0 P_____________ AL031926 28.9469 -90.8696 HU 100 3 9 353
1926233N13285 1926 34 NA GM NOT_NAMED 1926-08-25 23:00:00 TS 29.2000 -90.9000 100 955 hurdat_atl main 0 0 O_____________ hurdat_atl AL031926 29.2000 -90.9000 L HU 100 955 3 7 356
1926233N13285 1926 34 NA NA NOT_NAMED 1926-08-26 00:00:00 TS 29.3000 -90.9000 95 955 hurdat_atl main 0 0 O_____________ hurdat_atl AL031926 29.3000 -90.9000 HU 95 955 2 6 0
1926233N13285 1926 34 NA NA NOT_NAMED 1926-08-26 03:00:00 TS 29.6060 -90.9246 main 0 0 P_____________ AL031926 29.6060 -90.9246 HU 82 970 1 6 352
1926233N13285 1926 34 NA NA NOT_NAMED 1926-08-26 06:00:00 TS 29.9000 -91.0000 70 986 hurdat_atl main 0 0 O_____________ hurdat_atl AL031926 29.9000 -91.0000 HU 70 986 1 6 343
1926233N13285 1926 34 NA NA NOT_NAMED 1926-08-26 09:00:00 TS 30.1725 -91.1200 main 0 0 P_____________ AL031926 30.1725 -91.1200 HU 62 0 6 332
1926233N13285 1926 34 NA NA NOT_NAMED 1926-08-26 12:00:00 TS 30.4000 -91.3000 55 hurdat_atl main 0 0 O_____________ hurdat_atl AL031926 30.4000 -91.3000 TS 55 0 5 321
1926233N13285 1926 34 NA NA NOT_NAMED 1926-08-26 15:00:00 TS 30.5797 -91.4976 main 0 0 P_____________ AL031926 30.5797 -91.4976 TS 50 0 5 305
1926233N13285 1926 34 NA NA NOT_NAMED 1926-08-26 18:00:00 TS 30.7000 -91.8000 45 hurdat_atl main 0 0 O_____________ hurdat_atl AL031926 30.7000 -91.8000 TS 45 0 7 285
1926233N13285 1926 34 NA NA NOT_NAMED 1926-08-26 21:00:00 TS 30.7575 -92.2478 main 0 0 P_____________ AL031926 30.7575 -92.2478 TS 40 0 9 277
1926233N13285 1926 34 NA NA NOT_NAMED 1926-08-27 00:00:00 TS 30.8000 -92.8000 35 hurdat_atl main 0 0 O_____________ hurdat_atl AL031926 30.8000 -92.8000 TS 35 0 10 277
1926233N13285 1926 34 NA NA NOT_NAMED 1926-08-27 03:00:00 TS 30.8696 -93.3631 main 0 0 P_____________ AL031926 30.8696 -93.3631 TS 32 -1 10 281
1926233N13285 1926 34 NA NA NOT_NAMED 1926-08-27 06:00:00 TS 31.0000 -94.0000 30 hurdat_atl main 0 0 O_____________ hurdat_atl AL031926 31.0000 -94.0000 TD 30 -1 12 287
1926233N13285 1926 34 NA NA NOT_NAMED 1926-08-27 09:00:00 TS 31.2274 -94.7273 main 0 0 P_____________ AL031926 31.2274 -94.7273 TD 27 -1 14 291
1926233N13285 1926 34 NA NA NOT_NAMED 1926-08-27 12:00:00 TS 31.5000 -95.5000 25 hurdat_atl main 0 0 O_____________ hurdat_atl AL031926 31.5000 -95.5000 TD 25 -1 14 292
1926233N13285 1926 34 NA NA NOT_NAMED 1926-08-27 15:00:00 TS 31.7582 -96.2570 main 0 0 P_____________ AL031926 31.7582 -96.2570 TD 22 -1 14 291
1926233N13285 1926 34 NA NA NOT_NAMED 1926-08-27 18:00:00 TS 32.0000 -97.0000 20 hurdat_atl main 0 O_____________ hurdat_atl AL031926 32.0000 -97.0000 TD 20 -1 13 291

IBTrACS Databaseについて

本データベースは、米国NOAAが公開する1842年以降の世界の熱帯低気圧のベストトラックデータアーカイブInternational Best Track Archive for Climate Stewardship (IBTrACS)を、ウェブで閲覧しやすい形式に変換したものです。

最終更新日:2021-10-08